createdAt,value
2023-03-19T00:00:39.096Z,17.90
2023-03-19T00:03:27.215Z,19.20
2023-03-19T00:05:55.696Z,18.60
2023-03-19T00:08:23.860Z,18.40
2023-03-19T00:10:52.294Z,18.60
2023-03-19T00:13:20.561Z,18.30
2023-03-19T00:15:48.862Z,19.60
2023-03-19T00:18:16.932Z,17.80
2023-03-19T00:20:45.126Z,17.60
2023-03-19T00:23:13.396Z,17.50
2023-03-19T00:25:42.215Z,18.20
2023-03-19T00:28:10.362Z,18.70
2023-03-19T00:30:38.518Z,19.00
2023-03-19T00:33:08.212Z,19.10
2023-03-19T00:35:39.292Z,19.20
2023-03-19T00:38:08.007Z,19.80
2023-03-19T00:40:36.127Z,18.60
2023-03-19T00:43:04.489Z,19.30
2023-03-19T00:45:33.009Z,18.70
2023-03-19T00:48:01.411Z,18.90
2023-03-19T00:50:29.804Z,19.10
2023-03-19T00:52:57.938Z,19.30
2023-03-19T00:55:27.490Z,20.40
2023-03-19T00:57:56.283Z,19.00
2023-03-19T01:00:24.537Z,18.80
2023-03-19T01:02:52.725Z,19.20
2023-03-19T01:05:21.504Z,19.80
2023-03-19T01:07:50.949Z,18.70
2023-03-19T01:10:21.006Z,19.70
2023-03-19T01:12:49.254Z,18.60
2023-03-19T01:15:18.362Z,19.30
2023-03-19T01:17:47.001Z,18.10
2023-03-19T01:20:18.726Z,19.80
2023-03-19T01:22:46.838Z,19.00
2023-03-19T01:25:15.099Z,18.60
2023-03-19T01:27:52.504Z,18.50
2023-03-19T01:30:21.830Z,19.40
2023-03-19T01:33:08.898Z,19.90
2023-03-19T01:36:10.151Z,20.00
2023-03-19T01:38:54.546Z,20.80
2023-03-19T01:41:24.130Z,20.90
2023-03-19T01:43:53.873Z,21.40
2023-03-19T01:46:50.498Z,19.10
2023-03-19T01:49:40.551Z,20.60
2023-03-19T01:55:07.613Z,18.80
2023-03-19T01:58:07.851Z,18.50
2023-03-19T02:00:57.311Z,18.40
2023-03-19T02:03:26.896Z,17.70
2023-03-19T02:06:03.026Z,17.90
2023-03-19T02:08:32.577Z,18.30
2023-03-19T02:11:02.181Z,17.30
2023-03-19T02:13:30.475Z,17.70
2023-03-19T02:15:58.698Z,16.50
2023-03-19T02:18:27.413Z,16.90
2023-03-19T02:21:06.232Z,17.60
2023-03-19T02:23:42.441Z,17.10
2023-03-19T02:26:22.004Z,17.00
2023-03-19T02:28:53.118Z,16.90
2023-03-19T02:31:25.833Z,18.00
2023-03-19T02:34:37.583Z,16.90
2023-03-19T02:37:11.850Z,16.70
2023-03-19T02:39:50.815Z,16.20
2023-03-19T02:42:21.248Z,17.00
2023-03-19T02:44:49.518Z,16.30
2023-03-19T02:47:18.279Z,16.60
2023-03-19T02:49:46.899Z,15.80
2023-03-19T02:52:17.490Z,17.00
2023-03-19T02:54:46.789Z,16.00
2023-03-19T02:57:14.913Z,15.80
2023-03-19T02:59:43.209Z,16.00
2023-03-19T03:02:11.949Z,15.10
2023-03-19T03:04:40.309Z,16.60
2023-03-19T03:07:08.653Z,16.80
2023-03-19T03:09:36.780Z,16.20
2023-03-19T03:12:06.213Z,15.40
2023-03-19T03:14:35.175Z,15.80
2023-03-19T03:17:03.479Z,15.90
2023-03-19T03:19:32.221Z,17.50
2023-03-19T03:22:01.149Z,16.00
2023-03-19T03:24:30.503Z,15.90
2023-03-19T03:26:59.016Z,17.00
2023-03-19T03:29:27.307Z,16.90
2023-03-19T03:31:55.368Z,17.10
2023-03-19T03:34:23.466Z,16.70
2023-03-19T03:36:52.165Z,17.50
2023-03-19T03:39:20.215Z,17.20
2023-03-19T03:41:48.267Z,16.30
2023-03-19T03:44:16.654Z,17.10
2023-03-19T03:46:45.517Z,17.40
2023-03-19T03:49:13.937Z,17.80
2023-03-19T03:51:42.447Z,17.60
2023-03-19T03:54:10.996Z,17.90
2023-03-19T03:56:39.066Z,18.40
2023-03-19T03:59:07.732Z,18.10
2023-03-19T04:01:36.300Z,19.20
2023-03-19T04:04:04.973Z,20.70
2023-03-19T04:06:33.148Z,19.20
2023-03-19T04:09:21.920Z,20.90
2023-03-19T04:11:51.557Z,19.40
2023-03-19T04:14:20.319Z,17.90
2023-03-19T04:16:48.720Z,17.50
2023-03-19T04:19:17.011Z,16.60
2023-03-19T04:21:45.728Z,17.60
2023-03-19T04:24:14.370Z,17.50
2023-03-19T04:26:42.719Z,17.70
2023-03-19T04:29:11.031Z,16.60
2023-03-19T04:31:39.671Z,17.20
2023-03-19T04:34:08.078Z,16.80
2023-03-19T04:36:36.853Z,17.30
2023-03-19T04:39:06.186Z,16.60
2023-03-19T04:41:34.919Z,17.80
2023-03-19T04:44:25.141Z,17.00
2023-03-19T04:46:54.626Z,17.10
2023-03-19T04:49:24.571Z,18.90
2023-03-19T04:51:53.111Z,18.50
2023-03-19T04:54:21.296Z,18.60
2023-03-19T04:56:49.708Z,16.70
2023-03-19T04:59:18.305Z,17.80
2023-03-19T05:01:46.455Z,18.20
2023-03-19T05:04:17.985Z,18.20
2023-03-19T05:06:46.664Z,18.10
2023-03-19T05:09:14.745Z,18.40
2023-03-19T05:11:44.431Z,17.30
2023-03-19T05:14:19.407Z,18.40
2023-03-19T05:17:08.026Z,18.10
2023-03-19T05:19:48.770Z,17.50
2023-03-19T05:22:18.631Z,16.30
2023-03-19T05:24:47.021Z,16.90
2023-03-19T05:27:15.778Z,16.90
2023-03-19T05:30:11.089Z,15.90
2023-03-19T05:32:58.945Z,15.30
2023-03-19T05:35:37.831Z,16.00
2023-03-19T05:38:11.191Z,16.30
2023-03-19T05:40:42.086Z,16.90
2023-03-19T05:43:23.570Z,17.50
2023-03-19T05:45:52.992Z,17.60
2023-03-19T05:48:24.071Z,16.80
2023-03-19T05:50:53.061Z,17.60
2023-03-19T05:53:23.192Z,19.00
2023-03-19T05:56:23.499Z,18.90
2023-03-19T05:59:17.235Z,18.30
2023-03-19T06:01:48.996Z,17.60
2023-03-19T06:04:17.331Z,17.60
2023-03-19T06:06:45.473Z,17.40
2023-03-19T06:09:14.039Z,15.20
2023-03-19T06:11:44.671Z,16.90
2023-03-19T06:14:42.030Z,16.40
2023-03-19T06:17:33.010Z,19.10
2023-03-19T06:20:04.678Z,19.00
2023-03-19T06:22:32.837Z,20.20
2023-03-19T06:25:01.117Z,19.10
2023-03-19T06:27:30.402Z,18.30
2023-03-19T06:30:08.138Z,18.20
2023-03-19T06:32:37.239Z,17.00
2023-03-19T06:35:11.011Z,17.50
2023-03-19T06:37:40.562Z,18.20
2023-03-19T06:40:10.102Z,18.30
2023-03-19T06:42:38.442Z,18.70
2023-03-19T06:45:07.749Z,19.80
2023-03-19T06:47:35.942Z,19.20
2023-03-19T06:50:04.578Z,18.60
2023-03-19T06:52:33.031Z,17.80
2023-03-19T06:55:01.243Z,18.30
2023-03-19T06:57:29.485Z,18.10
2023-03-19T06:59:57.762Z,17.20
2023-03-19T07:02:26.429Z,15.90
2023-03-19T07:04:54.734Z,15.70
2023-03-19T07:07:22.883Z,16.20
2023-03-19T07:09:51.488Z,17.10
2023-03-19T07:12:19.792Z,16.10
2023-03-19T07:14:47.994Z,15.70
2023-03-19T07:17:16.086Z,17.90
2023-03-19T07:19:44.660Z,18.30
2023-03-19T07:22:12.999Z,19.30
2023-03-19T07:24:41.344Z,18.90
2023-03-19T07:27:09.828Z,18.50
2023-03-19T07:29:38.484Z,19.90
2023-03-19T07:32:06.912Z,17.60
2023-03-19T07:34:35.182Z,18.60
2023-03-19T07:37:04.097Z,17.20
2023-03-19T07:39:32.581Z,18.20
2023-03-19T07:42:00.914Z,18.50
2023-03-19T07:44:30.696Z,18.00
2023-03-19T07:46:59.085Z,17.90
2023-03-19T07:49:27.243Z,18.60
2023-03-19T07:51:55.698Z,18.10
2023-03-19T07:54:23.978Z,18.90
2023-03-19T07:56:52.272Z,18.00
2023-03-19T07:59:20.422Z,16.50
2023-03-19T08:01:48.919Z,17.50
2023-03-19T08:04:17.710Z,16.60
2023-03-19T08:06:46.163Z,16.50
2023-03-19T08:09:14.277Z,16.80
2023-03-19T08:11:42.765Z,16.50
2023-03-19T08:14:10.885Z,13.80
2023-03-19T08:16:39.256Z,14.50
2023-03-19T08:19:08.437Z,14.40
2023-03-19T08:21:36.506Z,13.40
2023-03-19T08:24:05.144Z,13.70
2023-03-19T08:26:33.741Z,14.00
2023-03-19T08:29:02.049Z,14.20
2023-03-19T08:31:30.849Z,14.00
2023-03-19T08:34:04.168Z,14.40
2023-03-19T08:36:32.604Z,15.60
2023-03-19T08:39:01.291Z,14.70
2023-03-19T08:41:29.945Z,15.20
2023-03-19T08:43:58.322Z,14.70
2023-03-19T08:46:27.832Z,16.00
2023-03-19T08:48:56.353Z,12.80
2023-03-19T08:51:26.167Z,15.10
2023-03-19T08:53:54.467Z,14.70
2023-03-19T08:56:22.715Z,13.40
2023-03-19T08:58:51.093Z,14.40
2023-03-19T09:01:19.462Z,13.60
2023-03-19T09:03:48.161Z,15.50
2023-03-19T09:06:16.727Z,14.70
2023-03-19T09:08:44.941Z,15.30
2023-03-19T09:11:14.646Z,14.30
2023-03-19T09:13:42.795Z,13.70
2023-03-19T09:16:11.166Z,15.00
2023-03-19T09:18:39.309Z,15.50
2023-03-19T09:21:07.726Z,13.50
2023-03-19T09:23:36.316Z,13.90
2023-03-19T09:26:04.581Z,15.30
2023-03-19T09:28:32.730Z,18.40
2023-03-19T09:31:07.188Z,19.40
2023-03-19T09:33:35.828Z,23.10
2023-03-19T09:36:04.546Z,25.10
2023-03-19T09:38:33.633Z,21.10
2023-03-19T09:41:09.090Z,22.40
2023-03-19T09:43:50.720Z,20.50
2023-03-19T09:46:27.257Z,18.90
2023-03-19T09:49:01.029Z,18.50
2023-03-19T09:51:54.927Z,17.60
2023-03-19T09:54:42.872Z,18.30
2023-03-19T09:57:13.198Z,18.00
2023-03-19T09:59:43.332Z,18.70
2023-03-19T10:02:40.407Z,20.00
2023-03-19T10:05:18.349Z,20.00
2023-03-19T10:08:05.147Z,19.20
2023-03-19T10:10:49.514Z,18.10
2023-03-19T10:13:50.267Z,18.40
2023-03-19T10:16:24.364Z,18.30
2023-03-19T10:18:55.989Z,19.90
2023-03-19T10:21:30.219Z,20.60
2023-03-19T10:24:08.092Z,21.40
2023-03-19T10:26:36.301Z,23.10
2023-03-19T10:29:11.951Z,22.80
2023-03-19T10:31:58.326Z,24.80
2023-03-19T10:34:42.469Z,25.30
2023-03-19T10:37:13.582Z,24.70
2023-03-19T10:39:44.788Z,24.40
2023-03-19T10:42:37.869Z,26.20
2023-03-19T10:45:24.018Z,25.90
2023-03-19T10:47:53.050Z,24.80
2023-03-19T10:50:30.424Z,26.00
2023-03-19T10:53:18.462Z,24.60
2023-03-19T10:56:00.921Z,24.80
2023-03-19T10:58:31.607Z,25.20
2023-03-19T11:01:19.976Z,25.20
2023-03-19T11:03:52.541Z,24.20
2023-03-19T11:06:26.778Z,25.80
2023-03-19T11:09:07.703Z,24.90
2023-03-19T11:11:42.832Z,25.60
2023-03-19T11:14:24.901Z,23.90
2023-03-19T11:16:59.363Z,25.10
2023-03-19T11:19:30.862Z,24.10
2023-03-19T11:22:11.493Z,24.80
2023-03-19T11:24:42.103Z,24.70
2023-03-19T11:27:11.666Z,24.60
2023-03-19T11:29:45.214Z,24.20
2023-03-19T11:32:33.584Z,26.00
2023-03-19T11:35:11.249Z,23.30
2023-03-19T11:37:48.130Z,23.50
2023-03-19T11:40:46.063Z,23.40
2023-03-19T11:43:40.656Z,23.10
2023-03-19T11:46:35.908Z,23.50
2023-03-19T11:49:25.445Z,22.80
2023-03-19T11:52:03.410Z,23.60
2023-03-19T11:54:47.325Z,22.90
2023-03-19T11:57:43.686Z,21.90
2023-03-19T12:00:33.291Z,21.90
2023-03-19T12:03:22.191Z,21.70
2023-03-19T12:05:58.904Z,21.60
2023-03-19T12:08:32.947Z,19.80
2023-03-19T12:11:16.889Z,19.20
2023-03-19T12:13:51.344Z,18.40
2023-03-19T12:16:30.558Z,18.50
2023-03-19T12:19:12.202Z,17.10
2023-03-19T12:22:09.222Z,15.20
2023-03-19T12:25:14.962Z,14.90
2023-03-19T12:28:03.319Z,14.90
2023-03-19T12:30:57.644Z,15.70
2023-03-19T12:33:53.997Z,15.70
2023-03-19T12:36:28.511Z,14.00
2023-03-19T12:39:05.384Z,14.50
2023-03-19T12:41:39.280Z,15.20
2023-03-19T12:44:17.187Z,14.40
2023-03-19T12:46:59.688Z,14.20
2023-03-19T12:49:37.998Z,14.20
2023-03-19T12:52:27.389Z,13.10
2023-03-19T12:55:04.498Z,13.50
2023-03-19T12:57:46.869Z,13.10
2023-03-19T13:02:58.262Z,13.80
2023-03-19T13:05:35.456Z,13.40
2023-03-19T13:08:27.808Z,13.90
2023-03-19T13:13:32.119Z,13.00
2023-03-19T13:18:58.144Z,14.10
2023-03-19T13:21:37.914Z,14.50
2023-03-19T13:24:18.951Z,16.10
2023-03-19T13:26:49.188Z,19.70
2023-03-19T13:29:20.077Z,21.00
2023-03-19T13:31:48.978Z,23.10
2023-03-19T13:34:17.079Z,22.90
2023-03-19T13:36:51.849Z,24.50
2023-03-19T13:39:26.348Z,24.70
2023-03-19T13:42:08.049Z,25.40
2023-03-19T13:44:36.527Z,24.20
2023-03-19T13:47:27.014Z,24.50
2023-03-19T13:50:16.356Z,25.60
2023-03-19T13:52:50.768Z,24.30
2023-03-19T13:55:24.807Z,26.30
2023-03-19T13:58:12.627Z,26.90
2023-03-19T14:00:46.937Z,26.50
2023-03-19T14:03:25.461Z,28.60
2023-03-19T14:05:56.788Z,25.30
2023-03-19T14:08:33.639Z,26.30
2023-03-19T14:11:04.832Z,25.80
2023-03-19T14:13:42.757Z,26.30
2023-03-19T14:16:26.445Z,27.40
2023-03-19T14:19:01.323Z,28.30
2023-03-19T14:21:46.489Z,28.50
2023-03-19T14:27:36.187Z,29.20
2023-03-19T14:30:19.167Z,29.80
2023-03-19T14:32:49.999Z,30.90
2023-03-19T14:35:22.690Z,32.00
2023-03-19T14:37:54.215Z,30.50
2023-03-19T14:40:26.067Z,32.30
2023-03-19T14:43:08.345Z,32.80
2023-03-19T14:45:45.404Z,31.10
2023-03-19T14:48:38.298Z,30.60
2023-03-19T14:51:25.508Z,31.40
2023-03-19T14:53:58.904Z,31.80
2023-03-19T14:56:35.915Z,31.10
2023-03-19T14:59:06.181Z,30.80
2023-03-19T15:01:41.173Z,30.80
2023-03-19T15:04:12.353Z,32.50
2023-03-19T15:06:42.991Z,29.30
2023-03-19T15:09:31.269Z,30.50
2023-03-19T15:12:34.459Z,29.60
2023-03-19T15:15:30.905Z,30.20
2023-03-19T15:18:05.234Z,30.20
2023-03-19T15:20:37.814Z,29.80
2023-03-19T15:23:20.055Z,31.40
2023-03-19T15:26:01.069Z,29.90
2023-03-19T15:28:45.672Z,31.60
2023-03-19T15:31:30.911Z,31.30
2023-03-19T15:34:01.716Z,32.40
2023-03-19T15:36:33.350Z,32.90
2023-03-19T15:39:05.170Z,31.80
2023-03-19T15:41:40.203Z,32.90
2023-03-19T15:44:16.271Z,33.40
2023-03-19T15:46:45.934Z,32.80
2023-03-19T15:49:21.129Z,33.60
2023-03-19T15:51:53.538Z,35.00
2023-03-19T15:54:22.649Z,32.80
2023-03-19T15:56:52.350Z,32.30
2023-03-19T15:59:25.973Z,32.30
2023-03-19T16:02:01.139Z,32.00
2023-03-19T16:04:38.407Z,30.50
2023-03-19T16:07:23.747Z,32.80
2023-03-19T16:09:52.106Z,31.90
2023-03-19T16:12:40.983Z,32.70
2023-03-19T16:15:43.733Z,32.80
2023-03-19T16:20:59.044Z,31.10
2023-03-19T16:23:51.852Z,32.60
2023-03-19T16:26:44.588Z,32.00
2023-03-19T16:29:34.240Z,32.40
2023-03-19T16:32:11.381Z,33.80
2023-03-19T16:34:57.136Z,33.60
2023-03-19T16:37:37.892Z,35.40
2023-03-19T16:40:12.510Z,33.90
2023-03-19T16:42:44.870Z,32.40
2023-03-19T16:45:18.985Z,33.90
2023-03-19T16:47:50.042Z,32.70
2023-03-19T16:50:21.845Z,34.20
2023-03-19T16:52:50.717Z,34.60
2023-03-19T16:55:23.221Z,33.50
2023-03-19T16:57:58.078Z,34.00
2023-03-19T17:00:29.514Z,34.90
2023-03-19T17:02:59.531Z,36.50
2023-03-19T17:05:28.834Z,36.00
2023-03-19T17:07:56.999Z,35.50
2023-03-19T17:10:27.661Z,35.90
2023-03-19T17:12:56.753Z,35.20
2023-03-19T17:15:30.060Z,36.00
2023-03-19T17:18:00.582Z,34.40
2023-03-19T17:20:33.367Z,35.80
2023-03-19T17:23:02.225Z,36.70
2023-03-19T17:25:30.735Z,36.80
2023-03-19T17:27:59.016Z,36.30
2023-03-19T17:30:28.761Z,36.40
2023-03-19T17:32:57.818Z,36.00
2023-03-19T17:35:26.374Z,35.70
2023-03-19T17:37:55.334Z,36.00
2023-03-19T17:40:27.574Z,35.60
2023-03-19T17:42:56.434Z,35.20
2023-03-19T17:45:29.935Z,34.40
2023-03-19T17:47:58.714Z,33.90
2023-03-19T17:50:31.471Z,35.10
2023-03-19T17:53:00.596Z,34.60
2023-03-19T17:55:30.350Z,36.20
2023-03-19T17:57:58.469Z,36.10
2023-03-19T18:00:26.995Z,37.70
2023-03-19T18:02:57.008Z,35.20
2023-03-19T18:05:26.259Z,35.60
2023-03-19T18:07:56.446Z,33.40
2023-03-19T18:10:29.772Z,32.40
2023-03-19T18:13:00.166Z,34.00
2023-03-19T18:15:33.542Z,33.10
2023-03-19T18:18:04.433Z,31.90
2023-03-19T18:20:37.955Z,33.70
2023-03-19T18:23:06.571Z,36.30
2023-03-19T18:25:35.879Z,35.20
2023-03-19T18:28:05.173Z,33.30
2023-03-19T18:30:35.689Z,33.10
2023-03-19T18:33:08.057Z,34.00
2023-03-19T18:35:45.595Z,38.80
2023-03-19T18:38:19.853Z,34.80
2023-03-19T18:40:49.123Z,35.50
2023-03-19T18:43:17.674Z,36.90
2023-03-19T18:45:51.090Z,37.50
2023-03-19T18:48:27.458Z,38.60
2023-03-19T18:50:56.572Z,35.50
2023-03-19T18:53:25.440Z,37.10
2023-03-19T18:55:53.784Z,34.80
2023-03-19T18:58:25.712Z,32.70
2023-03-19T19:00:54.509Z,34.00
2023-03-19T19:03:29.564Z,36.10
2023-03-19T19:05:57.769Z,39.50
2023-03-19T19:08:27.020Z,51.20
2023-03-19T19:11:03.422Z,55.40
2023-03-19T19:13:46.182Z,53.30
2023-03-19T19:16:29.458Z,42.40
2023-03-19T19:18:58.108Z,38.40
2023-03-19T19:21:26.645Z,37.80
2023-03-19T19:23:54.801Z,37.00
2023-03-19T19:26:26.611Z,38.80
2023-03-19T19:28:58.399Z,48.30
2023-03-19T19:31:32.501Z,50.40
2023-03-19T19:34:00.890Z,51.70
2023-03-19T19:36:29.448Z,55.20
2023-03-19T19:38:57.538Z,53.70
2023-03-19T19:41:27.060Z,44.20
2023-03-19T19:43:55.984Z,40.30
2023-03-19T19:46:24.718Z,45.00
2023-03-19T19:48:52.939Z,40.50
2023-03-19T19:51:24.180Z,37.00
2023-03-19T19:53:53.086Z,38.80
2023-03-19T19:56:24.325Z,40.30
2023-03-19T19:58:54.313Z,39.80
2023-03-19T20:01:24.908Z,39.10
2023-03-19T20:03:53.624Z,38.10
2023-03-19T20:06:21.981Z,39.80
2023-03-19T20:08:50.937Z,41.40
2023-03-19T20:11:22.259Z,41.70
2023-03-19T20:13:54.577Z,44.30
2023-03-19T20:18:54.832Z,45.00
2023-03-19T20:21:23.382Z,48.50
2023-03-19T20:23:55.510Z,51.30
2023-03-19T20:28:53.113Z,49.20
2023-03-19T20:31:29.639Z,48.80
2023-03-19T20:33:57.974Z,46.70
2023-03-19T20:36:26.898Z,48.30
2023-03-19T20:38:54.944Z,46.00
2023-03-19T20:41:27.082Z,47.00
2023-03-19T20:43:56.520Z,47.80
2023-03-19T20:46:24.848Z,48.00
2023-03-19T20:48:53.110Z,48.10
2023-03-19T20:51:31.742Z,47.40
2023-03-19T20:53:59.979Z,47.00
2023-03-19T20:56:28.270Z,46.20
2023-03-19T20:58:56.549Z,47.80
2023-03-19T21:01:25.092Z,48.70
2023-03-19T21:03:53.425Z,55.00
2023-03-19T21:06:23.955Z,58.60
2023-03-19T21:08:57.238Z,57.90
2023-03-19T21:11:39.948Z,57.80
2023-03-19T21:14:18.611Z,56.10
2023-03-19T21:16:47.028Z,56.70
2023-03-19T21:19:16.036Z,54.70
2023-03-19T21:21:44.160Z,56.00
2023-03-19T21:24:19.460Z,58.90
2023-03-19T21:26:47.788Z,60.30
2023-03-19T21:29:26.296Z,57.40
2023-03-19T21:31:55.497Z,59.40
2023-03-19T21:34:23.620Z,60.40
2023-03-19T21:36:52.123Z,62.90
2023-03-19T21:39:20.628Z,63.10
2023-03-19T21:41:48.750Z,62.30
2023-03-19T21:44:22.190Z,74.30
2023-03-19T21:46:51.416Z,76.60
2023-03-19T21:49:20.256Z,70.60
2023-03-19T21:51:49.791Z,67.90
2023-03-19T21:54:17.939Z,69.20
2023-03-19T21:56:46.351Z,73.10
2023-03-19T21:59:29.427Z,66.30
2023-03-19T22:01:57.917Z,63.40
2023-03-19T22:04:26.037Z,58.30
2023-03-19T22:06:54.146Z,59.20
2023-03-19T22:09:22.289Z,54.40
2023-03-19T22:11:51.121Z,56.00
2023-03-19T22:14:26.897Z,55.50
2023-03-19T22:16:56.129Z,55.60
2023-03-19T22:19:24.745Z,56.40
2023-03-19T22:21:53.591Z,63.20
2023-03-19T22:24:21.787Z,66.10
2023-03-19T22:26:56.584Z,64.60
2023-03-19T22:29:25.673Z,67.30
2023-03-19T22:31:55.807Z,67.90
2023-03-19T22:34:27.961Z,67.80
2023-03-19T22:36:56.230Z,67.00
2023-03-19T22:39:24.421Z,63.60
2023-03-19T22:41:52.557Z,64.70
2023-03-19T22:44:31.576Z,64.70
2023-03-19T22:47:01.838Z,65.40
2023-03-19T22:49:31.536Z,64.40
2023-03-19T22:51:59.750Z,65.10
2023-03-19T22:54:27.885Z,64.50
2023-03-19T22:56:56.121Z,62.50
2023-03-19T22:59:24.266Z,62.50
2023-03-19T23:01:52.524Z,58.30
2023-03-19T23:04:32.279Z,57.30
2023-03-19T23:07:01.408Z,55.70
2023-03-19T23:09:38.006Z,54.40
2023-03-19T23:14:36.935Z,57.70
2023-03-19T23:17:17.519Z,58.10
2023-03-19T23:19:45.796Z,53.90
2023-03-19T23:22:16.660Z,53.70
2023-03-19T23:24:45.073Z,54.90
2023-03-19T23:27:26.401Z,54.70
2023-03-19T23:29:55.045Z,54.70
2023-03-19T23:32:23.338Z,54.70
2023-03-19T23:34:59.571Z,55.60
2023-03-19T23:37:29.727Z,53.20
2023-03-19T23:39:58.006Z,54.10
2023-03-19T23:42:29.686Z,56.60
2023-03-19T23:45:01.607Z,55.50
2023-03-19T23:47:29.977Z,58.40
2023-03-19T23:49:58.005Z,57.50
2023-03-19T23:52:26.239Z,56.40
2023-03-19T23:54:54.296Z,55.40
2023-03-19T23:57:24.564Z,56.80
2023-03-19T23:59:53.554Z,55.90
